Battlement Mesa, Colorado
Current Conditions -  °F | °C
As of 7:53 PM on Tuesday 25 Nov 2014 (Local Time) from KRIL Reporting Station
Overcast Overcast  
Wind Chill: 28°   Ceiling: 5500
Heat Index: 28°   Visibility: 10mi
Dew Point: 23°   Wind: 0mph
Humidity: 81%   Direction: NA
Pressure: 30.31"   Gusts: NA
Location:  39.44°N, 108.03°W
Report Text: KRIL 260253Z AUTO 00000KT 10SM OVC055 M02/M05 A3031 RMK AO2 SLP303 T10221050 53003
Loading
Personal Weather Stations






























Interactive Weather Map New forecast layout! Learn more

10-Day Weather Forecast

Advertisements
Track Severe Weather on mobile